createdAt,value
2023-02-01T00:03:21.803Z,8.07
2023-02-01T00:08:24.179Z,11.13
2023-02-01T00:13:26.300Z,14.67
2023-02-01T00:18:30.198Z,8.97
2023-02-01T00:23:35.147Z,13.30
2023-02-01T00:28:37.065Z,13.73
2023-02-01T00:33:40.573Z,11.73
2023-02-01T00:38:42.806Z,9.87
2023-02-01T00:43:45.768Z,12.40
2023-02-01T00:48:49.339Z,9.87
2023-02-01T00:53:52.001Z,7.07
2023-02-01T00:58:54.354Z,5.27
2023-02-01T01:03:59.402Z,6.93
2023-02-01T01:09:04.950Z,2.13
2023-02-01T01:14:09.175Z,10.63
2023-02-01T01:19:13.833Z,9.30
2023-02-01T01:24:16.329Z,7.70
2023-02-01T01:29:18.454Z,9.57
2023-02-01T01:34:22.062Z,8.37
2023-02-01T01:39:24.049Z,5.53
2023-02-01T01:44:58.785Z,5.47
2023-02-01T01:50:03.066Z,9.33
2023-02-01T01:55:09.259Z,9.33
2023-02-01T02:00:14.187Z,7.10
2023-02-01T02:05:19.607Z,6.23
2023-02-01T02:10:22.056Z,9.93
2023-02-01T02:15:25.239Z,6.53
2023-02-01T02:21:01.177Z,7.30
2023-02-01T02:26:22.240Z,11.30
2023-02-01T02:31:52.088Z,6.83
2023-02-01T02:37:05.332Z,8.70
2023-02-01T02:42:14.070Z,8.10
2023-02-01T02:47:24.843Z,10.70
2023-02-01T02:52:29.190Z,12.70
2023-02-01T02:57:36.649Z,6.80
2023-02-01T03:02:38.988Z,15.77
2023-02-01T03:07:55.223Z,11.07
2023-02-01T03:13:03.735Z,13.90
2023-02-01T03:18:13.260Z,8.67
2023-02-01T03:23:21.086Z,11.77
2023-02-01T03:28:25.308Z,7.80
2023-02-01T03:33:28.479Z,14.57
2023-02-01T03:38:35.192Z,8.93
2023-02-01T03:43:47.169Z,9.30
2023-02-01T03:48:51.163Z,6.80
2023-02-01T03:53:56.205Z,9.00
2023-02-01T03:58:58.412Z,13.63
2023-02-01T04:04:01.053Z,7.73
2023-02-01T04:09:05.006Z,13.70
2023-02-01T04:14:07.119Z,12.03
2023-02-01T04:19:09.475Z,8.53
2023-02-01T04:24:13.208Z,8.70
2023-02-01T04:29:15.315Z,14.73
2023-02-01T04:34:17.775Z,6.50
2023-02-01T04:39:21.379Z,15.13
2023-02-01T04:44:23.613Z,5.50
2023-02-01T04:49:25.692Z,9.43
2023-02-01T04:54:29.166Z,12.53
2023-02-01T04:59:31.360Z,11.87
2023-02-01T05:04:33.468Z,9.77
2023-02-01T05:09:37.111Z,6.07
2023-02-01T05:14:39.521Z,11.57
2023-02-01T05:19:41.699Z,10.63
2023-02-01T05:24:45.609Z,13.20
2023-02-01T05:29:47.365Z,10.10
2023-02-01T05:34:49.362Z,11.10
2023-02-01T05:39:52.828Z,8.20
2023-02-01T05:44:54.941Z,10.30
2023-02-01T05:49:57.136Z,14.00
2023-02-01T05:55:00.797Z,12.67
2023-02-01T06:00:04.083Z,8.47
2023-02-01T06:05:07.378Z,6.00
2023-02-01T06:10:11.824Z,10.13
2023-02-01T06:15:14.692Z,9.60
2023-02-01T06:20:17.939Z,8.13
2023-02-01T06:25:21.657Z,5.10
2023-02-01T06:30:24.006Z,8.80
2023-02-01T06:35:26.852Z,10.57
2023-02-01T06:40:30.572Z,11.13
2023-02-01T06:45:32.650Z,8.97
2023-02-01T06:50:34.630Z,12.53
2023-02-01T06:55:38.052Z,7.70
2023-02-01T07:00:40.131Z,15.47
2023-02-01T07:05:42.504Z,11.30
2023-02-01T07:10:46.001Z,9.53
2023-02-01T07:15:48.084Z,6.70
2023-02-01T07:20:51.826Z,8.90
2023-02-01T07:25:56.473Z,9.17
2023-02-01T07:31:03.932Z,7.73
2023-02-01T07:36:08.233Z,10.13
2023-02-01T07:41:11.881Z,10.67
2023-02-01T07:46:13.950Z,13.13
2023-02-01T07:51:18.318Z,7.57
2023-02-01T07:56:22.007Z,9.27
2023-02-01T08:01:26.824Z,9.40
2023-02-01T08:06:31.238Z,9.27
2023-02-01T08:11:34.895Z,12.20
2023-02-01T08:16:37.429Z,9.17
2023-02-01T08:21:39.736Z,7.13
2023-02-01T08:26:43.836Z,11.33
2023-02-01T08:31:45.722Z,9.53
2023-02-01T08:36:47.701Z,7.67
2023-02-01T08:41:51.308Z,3.90
2023-02-01T08:46:53.404Z,6.57
2023-02-01T08:51:58.467Z,5.50
2023-02-01T08:57:04.343Z,2.47
2023-02-01T09:02:06.533Z,3.20
2023-02-01T09:07:09.274Z,8.07
2023-02-01T09:12:12.908Z,6.57
2023-02-01T09:17:15.212Z,4.47
2023-02-01T09:22:17.048Z,5.73
2023-02-01T09:27:21.021Z,3.17
2023-02-01T09:32:24.387Z,3.03
2023-02-01T09:37:27.020Z,2.70
2023-02-01T09:42:47.624Z,1.43
2023-02-01T09:47:56.480Z,2.63
2023-02-01T09:53:03.379Z,3.43
2023-02-01T09:58:13.753Z,4.70
2023-02-01T10:03:15.569Z,4.77
2023-02-01T10:08:27.324Z,0.97
2023-02-01T10:13:46.880Z,3.23
2023-02-01T10:19:11.299Z,2.17
2023-02-01T10:24:24.203Z,0.70
2023-02-01T10:29:35.652Z,2.20
2023-02-01T10:34:37.677Z,2.67
2023-02-01T10:39:39.990Z,3.03
2023-02-01T10:44:46.059Z,4.67
2023-02-01T10:49:55.790Z,0.83
2023-02-01T10:55:13.197Z,2.37
2023-02-01T11:00:23.207Z,5.87
2023-02-01T11:05:28.798Z,3.33
2023-02-01T11:10:37.661Z,5.43
2023-02-01T11:15:44.744Z,2.10
2023-02-01T11:20:48.686Z,4.90
2023-02-01T11:25:53.035Z,5.23
2023-02-01T11:31:00.041Z,3.17
2023-02-01T11:36:07.545Z,3.47
2023-02-01T11:41:15.162Z,4.47
2023-02-01T11:46:20.333Z,2.73
2023-02-01T11:51:38.937Z,4.20
2023-02-01T11:56:53.039Z,5.37
2023-02-01T12:02:34.207Z,2.00
2023-02-01T12:07:55.769Z,4.67
2023-02-01T12:13:10.713Z,8.73
2023-02-01T12:18:47.059Z,2.30
2023-02-01T12:24:12.767Z,5.57
2023-02-01T12:29:36.673Z,6.43
2023-02-01T12:35:17.755Z,5.50
2023-02-01T12:40:36.333Z,6.37
2023-02-01T12:45:42.569Z,4.07
2023-02-01T12:50:50.402Z,2.20
2023-02-01T12:55:56.469Z,4.30
2023-02-01T13:01:02.886Z,3.70
2023-02-01T13:06:12.004Z,3.20
2023-02-01T13:11:20.499Z,3.90
2023-02-01T13:16:26.013Z,5.90
2023-02-01T13:21:35.146Z,6.93
2023-02-01T13:26:39.385Z,4.83
2023-02-01T13:33:51.598Z,4.43
2023-02-01T13:38:20.420Z,6.97
2023-02-01T13:43:35.942Z,4.50
2023-02-01T13:48:43.503Z,5.47
2023-02-01T13:53:48.583Z,5.93
2023-02-01T13:58:52.530Z,6.10
2023-02-01T14:03:56.744Z,5.17
2023-02-01T14:09:32.439Z,5.33
2023-02-01T14:14:44.941Z,4.13
2023-02-01T14:19:47.974Z,8.47
2023-02-01T14:24:51.985Z,4.47
2023-02-01T14:29:59.109Z,1.90
2023-02-01T14:35:03.426Z,8.53
2023-02-01T14:40:17.523Z,10.97
2023-02-01T14:45:51.268Z,3.40
2023-02-01T14:51:12.897Z,2.90
2023-02-01T14:56:19.370Z,3.57
2023-02-01T15:01:25.353Z,3.73
2023-02-01T15:06:40.156Z,1.27
2023-02-01T15:11:57.152Z,3.67
2023-02-01T15:17:00.890Z,4.60
2023-02-01T15:22:03.234Z,2.87
2023-02-01T15:27:06.692Z,1.90
2023-02-01T15:32:29.904Z,5.33
2023-02-01T15:37:32.961Z,6.00
2023-02-01T15:42:35.990Z,4.50
2023-02-01T15:47:39.143Z,7.80
2023-02-01T15:52:42.875Z,1.13
2023-02-01T15:57:44.962Z,7.77
2023-02-01T16:02:55.662Z,5.17
2023-02-01T16:08:01.959Z,5.43
2023-02-01T16:13:03.802Z,3.13
2023-02-01T16:18:07.499Z,1.77
2023-02-01T16:23:10.932Z,1.60
2023-02-01T16:28:12.890Z,1.50
2023-02-01T16:33:20.194Z,0.90
2023-02-01T16:38:23.045Z,0.70
2023-02-01T16:43:26.593Z,1.77
2023-02-01T16:48:32.212Z,2.40
2023-02-01T16:59:19.675Z,0.57
2023-02-01T17:04:23.379Z,1.07
2023-02-01T17:09:25.518Z,0.70
2023-02-01T17:14:27.871Z,0.30
2023-02-01T17:19:56.347Z,2.07
2023-02-01T17:24:58.807Z,3.10
2023-02-01T17:30:00.658Z,2.70
2023-02-01T17:35:04.603Z,4.10
2023-02-01T17:40:07.817Z,7.70
2023-02-01T17:45:23.732Z,3.30
2023-02-01T17:50:30.853Z,2.13
2023-02-01T17:55:35.643Z,3.80
2023-02-01T18:00:53.005Z,4.17
2023-02-01T18:05:57.735Z,1.90
2023-02-01T18:11:01.806Z,5.47
2023-02-01T18:16:04.166Z,7.43
2023-02-01T18:21:09.001Z,3.77
2023-02-01T18:26:13.049Z,3.23
2023-02-01T18:31:22.411Z,3.40
2023-02-01T18:36:27.060Z,1.87
2023-02-01T18:41:29.396Z,0.90
2023-02-01T18:46:35.226Z,0.93
2023-02-01T18:51:38.622Z,1.63
2023-02-01T18:56:40.505Z,5.43
2023-02-01T19:01:44.769Z,3.50
2023-02-01T19:06:48.999Z,6.20
2023-02-01T19:11:51.521Z,2.00
2023-02-01T19:16:53.544Z,3.17
2023-02-01T19:21:57.240Z,5.93
2023-02-01T19:26:59.499Z,2.47
2023-02-01T19:32:01.594Z,2.27
2023-02-01T19:37:04.803Z,1.67
2023-02-01T19:42:07.105Z,7.50
2023-02-01T19:47:09.174Z,4.73
2023-02-01T19:52:12.678Z,4.97
2023-02-01T19:57:17.668Z,4.90
2023-02-01T20:02:18.830Z,6.90
2023-02-01T20:07:23.056Z,4.00
2023-02-01T20:12:25.223Z,5.07
2023-02-01T20:17:29.774Z,3.63
2023-02-01T20:22:33.292Z,5.40
2023-02-01T20:27:36.171Z,6.53
2023-02-01T20:32:47.425Z,2.10
2023-02-01T20:37:55.597Z,3.70
2023-02-01T20:42:58.736Z,4.40
2023-02-01T20:48:02.924Z,5.07
2023-02-01T20:53:06.585Z,4.70
2023-02-01T20:58:08.414Z,7.20
2023-02-01T21:03:10.649Z,5.53
2023-02-01T21:08:14.360Z,4.67
2023-02-01T21:13:16.702Z,2.63
2023-02-01T21:18:18.875Z,2.67
2023-02-01T21:23:22.555Z,6.83
2023-02-01T21:28:25.085Z,2.60
2023-02-01T21:33:27.484Z,3.50
2023-02-01T21:38:31.235Z,7.17
2023-02-01T21:43:33.600Z,5.90
2023-02-01T21:49:03.682Z,4.33
2023-02-01T21:54:00.200Z,5.20
2023-02-01T21:59:02.504Z,4.93
2023-02-01T22:04:05.095Z,2.97
2023-02-01T22:09:15.901Z,0.93
2023-02-01T22:14:18.569Z,2.13
2023-02-01T22:19:20.828Z,8.37
2023-02-01T22:24:24.461Z,3.93
2023-02-01T22:29:26.613Z,4.97
2023-02-01T22:34:28.666Z,5.17
2023-02-01T22:39:32.225Z,3.27
2023-02-01T22:44:34.012Z,6.37
2023-02-01T22:49:36.228Z,9.30
2023-02-01T22:54:39.967Z,7.93
2023-02-01T22:59:42.098Z,5.17
2023-02-01T23:04:44.301Z,7.17
2023-02-01T23:09:47.380Z,4.53
2023-02-01T23:14:49.671Z,3.53
2023-02-01T23:19:57.961Z,5.17
2023-02-01T23:25:01.709Z,6.97
2023-02-01T23:30:04.345Z,7.00
2023-02-01T23:35:07.301Z,8.47
2023-02-01T23:40:12.466Z,13.97
2023-02-01T23:45:14.259Z,7.53
2023-02-01T23:50:16.936Z,2.93
2023-02-01T23:55:20.373Z,7.27
